createdAt,value
2019-05-30T00:00:05.758Z,43.10
2019-05-30T00:02:21.486Z,43.10
2019-05-30T00:04:51.263Z,43.10
2019-05-30T00:07:20.802Z,43.10
2019-05-30T00:09:50.418Z,43.20
2019-05-30T00:12:19.962Z,43.10
2019-05-30T00:14:49.721Z,43.20
2019-05-30T00:17:19.265Z,43.10
2019-05-30T00:19:48.790Z,43.10
2019-05-30T00:22:18.378Z,43.30
2019-05-30T00:24:48.441Z,43.20
2019-05-30T00:27:17.971Z,43.20
2019-05-30T00:29:47.515Z,43.40
2019-05-30T00:32:17.523Z,43.40
2019-05-30T00:34:47.042Z,43.40
2019-05-30T00:37:16.575Z,43.90
2019-05-30T00:39:46.100Z,43.40
2019-05-30T00:42:15.692Z,43.50
2019-05-30T00:44:46.474Z,43.60
2019-05-30T00:47:16.000Z,43.60
2019-05-30T00:49:45.767Z,44.30
2019-05-30T00:52:15.420Z,43.70
2019-05-30T00:54:44.910Z,43.60
2019-05-30T00:57:14.435Z,44.10
2019-05-30T00:59:43.938Z,43.50
2019-05-30T01:02:13.723Z,43.60
2019-05-30T01:04:43.333Z,43.70
2019-05-30T01:07:12.935Z,43.60
2019-05-30T01:09:43.403Z,43.80
2019-05-30T01:12:12.919Z,43.70
2019-05-30T01:14:42.486Z,44.00
2019-05-30T01:17:12.082Z,43.90
2019-05-30T01:19:41.578Z,44.50
2019-05-30T01:22:11.151Z,44.00
2019-05-30T01:24:40.706Z,44.10
2019-05-30T01:27:10.246Z,44.30
2019-05-30T01:29:40.051Z,44.30
2019-05-30T01:32:28.907Z,44.20
2019-05-30T01:34:59.725Z,44.30
2019-05-30T01:37:29.434Z,44.20
2019-05-30T01:39:59.761Z,44.20
2019-05-30T01:42:30.395Z,44.50
2019-05-30T01:45:00.248Z,44.30
2019-05-30T01:47:29.911Z,44.50
2019-05-30T01:50:00.299Z,44.30
2019-05-30T01:52:30.339Z,44.50
2019-05-30T01:55:00.469Z,44.40
2019-05-30T01:57:30.347Z,44.40
2019-05-30T02:00:00.801Z,44.30
2019-05-30T02:02:30.359Z,44.50
2019-05-30T02:05:01.080Z,44.40
2019-05-30T02:07:31.170Z,44.50
2019-05-30T02:10:01.159Z,44.40
2019-05-30T02:12:30.790Z,44.40
2019-05-30T02:15:01.434Z,44.50
2019-05-30T02:17:32.158Z,44.50
2019-05-30T02:20:01.876Z,44.60
2019-05-30T02:22:31.558Z,44.60
2019-05-30T02:25:02.357Z,45.30
2019-05-30T02:27:32.103Z,44.60
2019-05-30T02:30:04.002Z,44.60
2019-05-30T02:32:32.934Z,44.60
2019-05-30T02:35:07.568Z,44.70
2019-05-30T02:37:36.886Z,44.70
2019-05-30T02:40:09.861Z,44.70
2019-05-30T02:42:37.682Z,44.90
2019-05-30T02:45:12.225Z,44.60
2019-05-30T02:47:41.227Z,44.70
2019-05-30T02:50:14.099Z,44.80
2019-05-30T02:52:43.842Z,44.60
2019-05-30T02:55:13.931Z,44.80
2019-05-30T02:57:43.667Z,44.80
2019-05-30T03:00:16.915Z,44.90
2019-05-30T03:03:15.405Z,45.80
2019-05-30T03:05:48.890Z,45.90
2019-05-30T03:08:18.395Z,45.00
2019-05-30T03:10:47.902Z,45.80
2019-05-30T03:13:17.388Z,45.80
2019-05-30T03:15:46.883Z,45.80
2019-05-30T03:18:16.414Z,44.80
2019-05-30T03:20:46.037Z,45.70
2019-05-30T03:23:16.514Z,45.70
2019-05-30T03:25:46.039Z,45.70
2019-05-30T03:28:15.567Z,45.70
2019-05-30T03:30:45.168Z,45.70
2019-05-30T03:33:34.902Z,45.70
2019-05-30T03:35:46.144Z,45.60
2019-05-30T03:38:15.838Z,45.60
2019-05-30T03:40:45.544Z,45.50
2019-05-30T03:43:15.933Z,45.60
2019-05-30T03:45:45.804Z,45.60
2019-05-30T03:48:16.528Z,45.70
2019-05-30T03:50:49.483Z,45.70
2019-05-30T03:53:19.330Z,45.60
2019-05-30T03:55:53.959Z,45.60
2019-05-30T03:58:33.757Z,45.70
2019-05-30T04:01:06.184Z,45.50
2019-05-30T04:03:41.351Z,45.60
2019-05-30T04:06:19.517Z,45.70
2019-05-30T04:08:50.068Z,45.80
2019-05-30T04:11:21.099Z,46.10
2019-05-30T04:13:52.472Z,45.90
2019-05-30T04:16:21.959Z,45.90
2019-05-30T04:18:51.524Z,46.10
2019-05-30T04:21:21.781Z,46.10
2019-05-30T04:23:51.420Z,46.20
2019-05-30T04:26:42.336Z,46.30
2019-05-30T04:29:12.381Z,46.20
2019-05-30T04:31:43.041Z,46.30
2019-05-30T04:34:13.160Z,46.40
2019-05-30T04:36:44.023Z,47.10
2019-05-30T04:39:15.152Z,46.20
2019-05-30T04:41:44.825Z,46.80
2019-05-30T04:44:16.065Z,47.10
2019-05-30T04:46:45.584Z,47.00
2019-05-30T04:49:16.905Z,46.90
2019-05-30T04:51:46.386Z,47.00
2019-05-30T04:54:16.934Z,46.40
2019-05-30T04:56:47.319Z,46.10
2019-05-30T04:59:17.524Z,45.30
2019-05-30T05:01:48.338Z,44.30
2019-05-30T05:04:19.421Z,43.40
2019-05-30T05:06:49.066Z,42.50
2019-05-30T05:09:20.144Z,42.10
2019-05-30T05:11:49.914Z,41.00
2019-05-30T05:14:20.556Z,39.60
2019-05-30T05:16:50.275Z,39.10
2019-05-30T05:19:22.409Z,38.20
2019-05-30T05:21:51.294Z,36.90
2019-05-30T05:24:21.459Z,34.40
2019-05-30T05:26:51.055Z,34.10
2019-05-30T05:29:21.790Z,33.90
2019-05-30T05:32:16.111Z,33.50
2019-05-30T05:34:45.923Z,32.10
2019-05-30T05:37:15.454Z,32.40
2019-05-30T05:39:44.991Z,31.70
2019-05-30T05:42:16.020Z,30.60
2019-05-30T05:44:53.281Z,30.10
2019-05-30T05:47:23.030Z,29.60
2019-05-30T05:49:52.578Z,28.10
2019-05-30T05:52:22.812Z,27.70
2019-05-30T05:54:52.374Z,27.40
2019-05-30T05:57:22.949Z,27.20
2019-05-30T05:59:52.618Z,26.60
2019-05-30T06:02:23.257Z,25.80
2019-05-30T06:04:52.923Z,25.60
2019-05-30T06:07:25.935Z,26.10
2019-05-30T06:09:55.435Z,25.40
2019-05-30T06:12:25.775Z,25.50
2019-05-30T06:14:55.670Z,24.00
2019-05-30T06:17:25.462Z,24.30
2019-05-30T06:19:54.975Z,23.90
2019-05-30T06:22:25.549Z,24.00
2019-05-30T06:24:55.218Z,22.90
2019-05-30T06:27:26.146Z,22.30
2019-05-30T06:29:55.946Z,22.30
2019-05-30T06:32:26.659Z,21.90
2019-05-30T06:34:56.595Z,21.60
2019-05-30T06:37:27.323Z,21.50
2019-05-30T06:39:57.014Z,20.60
2019-05-30T06:42:28.151Z,19.70
2019-05-30T06:44:57.794Z,19.10
2019-05-30T06:47:28.375Z,19.10
2019-05-30T06:49:58.466Z,18.60
2019-05-30T06:52:29.188Z,18.10
2019-05-30T06:54:59.074Z,18.10
2019-05-30T06:57:29.341Z,18.00
2019-05-30T07:00:06.040Z,17.20
2019-05-30T07:02:35.654Z,17.00
2019-05-30T07:05:05.853Z,17.30
2019-05-30T07:07:35.814Z,16.60
2019-05-30T07:10:06.140Z,16.70
2019-05-30T07:12:35.647Z,16.30
2019-05-30T07:15:06.298Z,16.00
2019-05-30T07:17:35.895Z,15.90
2019-05-30T07:20:06.446Z,15.70
2019-05-30T07:22:35.967Z,14.90
2019-05-30T07:25:05.778Z,14.60
2019-05-30T07:27:35.308Z,14.30
2019-05-30T07:30:05.306Z,14.00
2019-05-30T07:32:34.802Z,14.20
2019-05-30T07:35:07.174Z,14.10
2019-05-30T07:37:35.818Z,14.00
2019-05-30T07:40:07.525Z,13.90
2019-05-30T07:42:38.111Z,13.80
2019-05-30T07:45:08.638Z,13.60
2019-05-30T07:47:38.617Z,13.20
2019-05-30T07:50:09.460Z,13.10
2019-05-30T07:52:39.139Z,12.60
2019-05-30T07:55:08.841Z,12.70
2019-05-30T07:57:40.989Z,12.10
2019-05-30T08:00:10.539Z,11.90
2019-05-30T08:02:41.025Z,12.20
2019-05-30T08:05:23.553Z,12.40
2019-05-30T08:07:42.125Z,12.10
2019-05-30T08:10:12.625Z,12.10
2019-05-30T08:12:45.212Z,11.80
2019-05-30T08:15:14.811Z,11.90
2019-05-30T08:17:44.734Z,11.80
2019-05-30T08:20:14.651Z,11.90
2019-05-30T08:22:44.470Z,11.80
2019-05-30T08:25:14.303Z,11.70
2019-05-30T08:27:43.833Z,11.30
2019-05-30T08:30:14.004Z,11.40
2019-05-30T08:32:43.568Z,11.20
2019-05-30T08:35:13.186Z,11.00
2019-05-30T08:37:42.767Z,10.50
2019-05-30T08:40:12.375Z,10.40
2019-05-30T08:42:41.890Z,10.60
2019-05-30T08:45:11.813Z,10.40
2019-05-30T08:47:41.369Z,10.40
2019-05-30T08:50:10.923Z,10.30
2019-05-30T08:52:41.070Z,10.20
2019-05-30T08:55:10.790Z,9.90
2019-05-30T08:57:40.968Z,9.80
2019-05-30T09:00:10.961Z,9.60
2019-05-30T09:02:41.003Z,9.60
2019-05-30T09:05:10.882Z,9.50
2019-05-30T09:07:40.482Z,8.80
2019-05-30T09:10:10.110Z,8.50
2019-05-30T09:12:42.089Z,8.70
2019-05-30T09:15:11.074Z,8.60
2019-05-30T09:17:42.484Z,9.00
2019-05-30T09:20:14.106Z,9.10
2019-05-30T09:22:43.854Z,9.00
2019-05-30T09:25:13.588Z,8.90
2019-05-30T09:27:44.680Z,8.80
2019-05-30T09:30:14.715Z,8.60
2019-05-30T09:32:45.175Z,8.70
2019-05-30T09:35:15.282Z,8.80
2019-05-30T09:37:45.843Z,8.80
2019-05-30T09:40:15.871Z,8.60
2019-05-30T09:42:47.015Z,8.80
2019-05-30T09:45:17.257Z,8.70
2019-05-30T09:47:47.953Z,8.50
2019-05-30T09:50:18.537Z,8.50
2019-05-30T09:52:49.145Z,8.20
2019-05-30T09:55:19.426Z,8.00
2019-05-30T09:57:49.610Z,7.40
2019-05-30T10:00:20.451Z,7.30
2019-05-30T10:02:50.579Z,7.50
2019-05-30T10:05:24.203Z,7.50
2019-05-30T10:07:52.997Z,7.50
2019-05-30T10:10:23.213Z,7.20
2019-05-30T10:12:53.675Z,6.90
2019-05-30T10:15:40.000Z,6.70
2019-05-30T10:18:09.645Z,6.40
2019-05-30T10:20:39.397Z,6.60
2019-05-30T10:23:09.000Z,6.40
2019-05-30T10:25:38.510Z,5.90
2019-05-30T10:28:08.305Z,5.50
2019-05-30T10:30:37.838Z,5.50
2019-05-30T10:33:07.336Z,5.60
2019-05-30T10:35:36.847Z,6.20
2019-05-30T10:38:06.346Z,6.60
2019-05-30T10:40:36.238Z,6.40
2019-05-30T10:43:08.426Z,6.70
2019-05-30T10:45:38.684Z,6.80
2019-05-30T10:48:08.581Z,6.80
2019-05-30T10:50:38.089Z,6.90
2019-05-30T10:53:07.582Z,7.10
2019-05-30T10:55:37.126Z,7.50
2019-05-30T10:58:06.867Z,7.50
2019-05-30T11:00:50.537Z,7.70
2019-05-30T11:03:21.421Z,8.00
2019-05-30T11:05:59.421Z,8.00
2019-05-30T11:08:29.449Z,8.00
2019-05-30T11:10:58.971Z,8.10
2019-05-30T11:13:28.505Z,8.30
2019-05-30T11:15:58.939Z,8.40
2019-05-30T11:18:28.551Z,8.40
2019-05-30T11:20:59.107Z,8.50
2019-05-30T11:23:29.013Z,8.60
2019-05-30T11:25:58.902Z,8.80
2019-05-30T11:28:30.940Z,8.80
2019-05-30T11:31:04.198Z,8.90
2019-05-30T11:33:33.656Z,9.10
2019-05-30T11:36:13.106Z,9.00
2019-05-30T11:38:43.550Z,9.20
2019-05-30T11:41:14.335Z,9.70
2019-05-30T11:43:53.499Z,9.90
2019-05-30T11:46:25.108Z,10.00
2019-05-30T11:48:57.857Z,10.20
2019-05-30T11:51:32.921Z,10.30
2019-05-30T11:54:05.850Z,10.50
2019-05-30T11:56:40.139Z,10.50
2019-05-30T11:59:19.076Z,10.60
2019-05-30T12:01:50.248Z,10.90
2019-05-30T12:04:32.363Z,10.90
2019-05-30T12:07:35.450Z,11.00
2019-05-30T12:10:06.849Z,11.30
2019-05-30T12:12:36.619Z,11.50
2019-05-30T12:15:06.718Z,12.10
2019-05-30T12:17:38.137Z,11.90
2019-05-30T12:20:08.132Z,12.00
2019-05-30T12:22:38.844Z,12.30
2019-05-30T12:25:08.724Z,12.60
2019-05-30T12:27:46.050Z,12.80
2019-05-30T12:30:27.559Z,12.80
2019-05-30T12:32:58.330Z,12.80
2019-05-30T12:35:28.391Z,13.30
2019-05-30T12:38:06.587Z,13.30
2019-05-30T12:40:39.924Z,13.50
2019-05-30T12:43:13.725Z,13.80
2019-05-30T12:45:44.541Z,14.20
2019-05-30T12:48:38.921Z,14.20
2019-05-30T12:51:06.202Z,14.00
2019-05-30T12:53:35.805Z,14.40
2019-05-30T12:56:07.522Z,14.30
2019-05-30T12:58:38.194Z,14.70
2019-05-30T13:01:08.071Z,14.90
2019-05-30T13:03:38.593Z,14.90
2019-05-30T13:06:08.292Z,15.10
2019-05-30T13:08:37.922Z,15.10
2019-05-30T13:11:07.427Z,15.00
2019-05-30T13:13:36.992Z,14.90
2019-05-30T13:16:10.354Z,14.80
2019-05-30T13:18:40.819Z,15.00
2019-05-30T13:21:10.399Z,15.10
2019-05-30T13:23:40.007Z,15.30
2019-05-30T13:26:09.858Z,15.60
2019-05-30T13:28:41.655Z,15.60
2019-05-30T13:31:11.378Z,15.80
2019-05-30T13:33:41.173Z,16.10
2019-05-30T13:36:11.437Z,15.80
2019-05-30T13:38:41.429Z,16.00
2019-05-30T13:41:11.062Z,15.90
2019-05-30T13:43:41.075Z,16.30
2019-05-30T13:46:11.108Z,16.40
2019-05-30T13:48:40.768Z,16.20
2019-05-30T13:51:10.343Z,16.20
2019-05-30T13:53:39.956Z,16.70
2019-05-30T13:56:10.541Z,16.90
2019-05-30T13:58:40.525Z,16.90
2019-05-30T14:01:14.184Z,17.10
2019-05-30T14:03:43.843Z,16.90
2019-05-30T14:06:13.406Z,17.00
2019-05-30T14:08:42.918Z,17.00
2019-05-30T14:11:14.132Z,16.90
2019-05-30T14:13:43.721Z,17.00
2019-05-30T14:16:13.539Z,17.10
2019-05-30T14:18:43.097Z,17.20
2019-05-30T14:21:12.710Z,17.60
2019-05-30T14:23:47.490Z,17.20
2019-05-30T14:26:17.219Z,17.30
2019-05-30T14:28:47.007Z,17.50
2019-05-30T14:31:16.886Z,17.60
2019-05-30T14:33:46.842Z,17.70
2019-05-30T14:36:16.766Z,17.60
2019-05-30T14:38:57.992Z,17.60
2019-05-30T14:41:18.938Z,17.70
2019-05-30T14:43:48.474Z,17.70
2019-05-30T14:46:18.288Z,17.90
2019-05-30T14:48:48.145Z,17.90
2019-05-30T14:51:17.681Z,17.90
2019-05-30T14:53:47.557Z,17.80
2019-05-30T14:56:17.603Z,17.90
2019-05-30T14:58:47.608Z,17.80
2019-05-30T15:01:17.624Z,17.80
2019-05-30T15:03:47.439Z,17.70
2019-05-30T15:06:17.895Z,17.90
2019-05-30T15:08:47.772Z,18.00
2019-05-30T15:11:17.326Z,18.00
2019-05-30T15:13:47.089Z,18.10
2019-05-30T15:16:17.211Z,18.10
2019-05-30T15:18:47.019Z,18.20
2019-05-30T15:21:16.718Z,18.00
2019-05-30T15:23:46.596Z,18.10
2019-05-30T15:26:16.321Z,18.00
2019-05-30T15:28:46.062Z,18.20
2019-05-30T15:31:16.639Z,18.10
2019-05-30T15:33:46.947Z,18.30
2019-05-30T15:36:17.068Z,18.30
2019-05-30T15:38:47.060Z,18.50
2019-05-30T15:41:17.363Z,18.50
2019-05-30T15:43:47.575Z,18.50
2019-05-30T15:46:19.356Z,18.70
2019-05-30T15:48:48.870Z,18.70
2019-05-30T15:51:18.873Z,18.80
2019-05-30T15:53:48.714Z,18.70
2019-05-30T15:56:19.413Z,18.70
2019-05-30T15:58:49.570Z,18.80
2019-05-30T16:01:20.168Z,18.80
2019-05-30T16:03:49.755Z,18.80
2019-05-30T16:06:20.538Z,18.90
2019-05-30T16:08:50.420Z,19.00
2019-05-30T16:11:21.227Z,19.20
2019-05-30T16:13:51.072Z,19.40
2019-05-30T16:16:33.770Z,19.40
2019-05-30T16:18:51.866Z,19.50
2019-05-30T16:21:22.434Z,19.50
2019-05-30T16:23:52.288Z,19.60
2019-05-30T16:26:22.044Z,19.60
2019-05-30T16:28:51.915Z,19.50
2019-05-30T16:31:22.370Z,19.40
2019-05-30T16:33:53.163Z,19.50
2019-05-30T16:36:22.787Z,19.60
2019-05-30T16:38:52.554Z,19.80
2019-05-30T16:41:22.626Z,19.70
2019-05-30T16:43:52.699Z,19.70
2019-05-30T16:46:22.693Z,20.30
2019-05-30T16:48:54.335Z,19.80
2019-05-30T16:51:23.954Z,20.00
2019-05-30T16:53:53.527Z,20.00
2019-05-30T16:56:24.114Z,19.60
2019-05-30T16:58:53.716Z,20.00
2019-05-30T17:01:24.319Z,20.00
2019-05-30T17:03:56.220Z,20.20
2019-05-30T17:06:26.465Z,20.20
2019-05-30T17:08:56.145Z,20.20
2019-05-30T17:11:25.810Z,20.20
2019-05-30T17:13:55.544Z,20.30
2019-05-30T17:16:26.161Z,20.30
2019-05-30T17:18:55.833Z,20.40
2019-05-30T17:21:26.449Z,20.60
2019-05-30T17:23:56.514Z,20.60
2019-05-30T17:26:27.325Z,20.70
2019-05-30T17:28:57.099Z,20.90
2019-05-30T17:31:28.676Z,21.00
2019-05-30T17:33:58.380Z,21.10
2019-05-30T17:36:28.449Z,21.30
2019-05-30T17:38:59.465Z,21.40
2019-05-30T17:41:29.153Z,21.70
2019-05-30T17:43:58.788Z,21.70
2019-05-30T17:46:30.049Z,21.80
2019-05-30T17:49:01.929Z,22.10
2019-05-30T17:51:31.506Z,22.30
2019-05-30T17:54:01.117Z,22.50
2019-05-30T17:56:30.866Z,22.70
2019-05-30T17:59:00.552Z,23.00
2019-05-30T18:01:32.946Z,23.00
2019-05-30T18:04:02.958Z,23.10
2019-05-30T18:06:32.716Z,23.30
2019-05-30T18:09:02.830Z,23.30
2019-05-30T18:11:34.006Z,23.40
2019-05-30T18:14:03.638Z,23.40
2019-05-30T18:16:33.267Z,23.70
2019-05-30T18:19:03.021Z,23.70
2019-05-30T18:21:32.779Z,23.80
2019-05-30T18:24:02.888Z,23.90
2019-05-30T18:26:32.528Z,24.00
2019-05-30T18:29:02.694Z,24.00
2019-05-30T18:31:32.432Z,24.20
2019-05-30T18:34:02.763Z,24.20
2019-05-30T18:36:32.766Z,24.40
2019-05-30T18:39:03.080Z,24.30
2019-05-30T18:41:33.507Z,24.60
2019-05-30T18:44:05.669Z,24.60
2019-05-30T18:46:38.420Z,24.70
2019-05-30T18:49:07.773Z,24.70
2019-05-30T18:51:38.659Z,24.80
2019-05-30T18:54:08.802Z,24.70
2019-05-30T18:56:39.328Z,24.90
2019-05-30T18:59:09.063Z,24.80
2019-05-30T19:01:39.635Z,24.90
2019-05-30T19:04:09.322Z,24.90
2019-05-30T19:06:39.133Z,25.00
2019-05-30T19:09:09.251Z,25.00
2019-05-30T19:11:39.013Z,25.10
2019-05-30T19:14:08.711Z,25.10
2019-05-30T19:16:38.310Z,25.20
2019-05-30T19:19:07.916Z,25.40
2019-05-30T19:21:37.532Z,25.40
2019-05-30T19:24:07.461Z,25.40
2019-05-30T19:26:37.049Z,25.50
2019-05-30T19:29:06.849Z,25.60
2019-05-30T19:31:36.960Z,25.90
2019-05-30T19:34:07.681Z,25.80
2019-05-30T19:36:37.368Z,25.90
2019-05-30T19:39:07.159Z,26.00
2019-05-30T19:41:53.431Z,26.00
2019-05-30T19:44:09.090Z,26.10
2019-05-30T19:46:38.970Z,26.20
2019-05-30T19:49:08.931Z,26.30
2019-05-30T19:51:39.241Z,26.80
2019-05-30T19:54:09.099Z,26.40
2019-05-30T19:56:40.832Z,26.70
2019-05-30T19:59:09.934Z,26.80
2019-05-30T20:01:40.049Z,26.70
2019-05-30T20:04:09.790Z,26.90
2019-05-30T20:06:41.221Z,27.30
2019-05-30T20:09:19.458Z,27.30
2019-05-30T20:12:02.572Z,27.50
2019-05-30T20:14:21.370Z,27.40
2019-05-30T20:16:51.143Z,27.60
2019-05-30T20:19:20.677Z,27.70
2019-05-30T20:21:50.368Z,27.80
2019-05-30T20:24:19.960Z,28.00
2019-05-30T20:26:52.480Z,27.90
2019-05-30T20:29:22.201Z,28.10
2019-05-30T20:32:12.530Z,28.30
2019-05-30T20:34:43.083Z,28.40
2019-05-30T20:37:14.078Z,28.50
2019-05-30T20:39:43.686Z,28.50
2019-05-30T20:42:19.224Z,28.60
2019-05-30T20:44:44.569Z,28.90
2019-05-30T20:47:19.167Z,29.10
2019-05-30T20:49:48.762Z,29.30
2019-05-30T20:52:18.325Z,29.10
2019-05-30T20:54:47.839Z,29.30
2019-05-30T20:57:17.370Z,29.40
2019-05-30T20:59:47.163Z,29.40
2019-05-30T21:02:17.913Z,29.60
2019-05-30T21:04:47.707Z,29.80
2019-05-30T21:07:17.514Z,29.90
2019-05-30T21:09:47.295Z,30.00
2019-05-30T21:12:17.233Z,30.00
2019-05-30T21:14:48.081Z,30.00
2019-05-30T21:17:17.696Z,30.40
2019-05-30T21:19:47.278Z,30.40
2019-05-30T21:22:17.881Z,30.60
2019-05-30T21:24:47.445Z,30.60
2019-05-30T21:27:17.095Z,30.80
2019-05-30T21:29:47.596Z,30.70
2019-05-30T21:32:19.733Z,30.90
2019-05-30T21:34:49.836Z,30.90
2019-05-30T21:37:19.662Z,30.90
2019-05-30T21:39:49.509Z,31.10
2019-05-30T21:42:19.127Z,31.10
2019-05-30T21:44:52.313Z,31.30
2019-05-30T21:47:20.093Z,31.20
2019-05-30T21:49:49.610Z,31.10
2019-05-30T21:52:19.135Z,31.40
2019-05-30T21:54:48.662Z,31.40
2019-05-30T21:57:18.288Z,31.40
2019-05-30T21:59:48.932Z,31.80
2019-05-30T22:02:19.427Z,31.90
2019-05-30T22:04:49.102Z,32.20
2019-05-30T22:07:18.615Z,32.80
2019-05-30T22:09:49.326Z,32.30
2019-05-30T22:12:19.035Z,32.40
2019-05-30T22:14:49.810Z,32.40
2019-05-30T22:17:19.584Z,32.30
2019-05-30T22:19:50.037Z,32.40
2019-05-30T22:22:19.590Z,32.80
2019-05-30T22:24:50.314Z,33.00
2019-05-30T22:27:19.986Z,33.00
2019-05-30T22:29:50.607Z,33.40
2019-05-30T22:32:20.205Z,33.10
2019-05-30T22:34:50.774Z,33.10
2019-05-30T22:37:20.424Z,33.10
2019-05-30T22:39:50.944Z,33.30
2019-05-30T22:42:20.573Z,33.40
2019-05-30T22:44:50.235Z,33.80
2019-05-30T22:47:19.870Z,33.90
2019-05-30T22:49:50.662Z,34.00
2019-05-30T22:52:20.397Z,34.00
2019-05-30T22:54:51.138Z,34.10
2019-05-30T22:57:20.759Z,34.30
2019-05-30T22:59:50.966Z,34.60
2019-05-30T23:02:21.565Z,35.10
2019-05-30T23:04:52.281Z,35.00
2019-05-30T23:07:22.784Z,34.90
2019-05-30T23:09:53.975Z,35.10
2019-05-30T23:12:23.625Z,35.20
2019-05-30T23:14:56.764Z,35.00
2019-05-30T23:17:27.847Z,35.10
2019-05-30T23:19:57.443Z,35.00
2019-05-30T23:22:26.978Z,34.90
2019-05-30T23:24:57.528Z,35.00
2019-05-30T23:27:27.070Z,35.30
2019-05-30T23:29:57.771Z,35.40
2019-05-30T23:32:27.622Z,35.30
2019-05-30T23:34:57.161Z,35.50
2019-05-30T23:37:26.792Z,35.30
2019-05-30T23:39:56.866Z,35.50
2019-05-30T23:42:26.457Z,35.30
2019-05-30T23:44:56.010Z,35.30
2019-05-30T23:47:26.627Z,35.40
2019-05-30T23:49:56.355Z,35.30
2019-05-30T23:52:26.117Z,35.40
2019-05-30T23:54:56.271Z,35.70
2019-05-30T23:57:25.925Z,35.70
2019-05-30T23:59:56.845Z,35.60
